createdAt,value
2018-11-05T00:00:42.728Z,18.60
2018-11-05T00:03:12.721Z,18.73
2018-11-05T00:05:43.376Z,19.13
2018-11-05T00:08:13.905Z,17.93
2018-11-05T00:10:44.668Z,17.90
2018-11-05T00:13:15.118Z,17.57
2018-11-05T00:15:45.807Z,17.67
2018-11-05T00:18:16.605Z,17.83
2018-11-05T00:20:46.678Z,18.10
2018-11-05T00:23:17.366Z,16.47
2018-11-05T00:25:48.557Z,16.97
2018-11-05T00:28:18.414Z,16.27
2018-11-05T00:30:49.150Z,16.27
2018-11-05T00:33:19.278Z,16.10
2018-11-05T00:35:49.984Z,17.83
2018-11-05T00:38:20.361Z,16.57
2018-11-05T00:40:50.894Z,16.50
2018-11-05T00:43:21.843Z,17.33
2018-11-05T00:45:52.692Z,16.03
2018-11-05T00:48:23.606Z,15.80
2018-11-05T00:50:54.541Z,15.10
2018-11-05T00:53:25.332Z,14.97
2018-11-05T00:55:56.356Z,14.80
2018-11-05T00:58:27.018Z,15.17
2018-11-05T01:00:57.610Z,15.03
2018-11-05T01:03:27.834Z,14.10
2018-11-05T01:05:58.358Z,14.87
2018-11-05T01:08:29.093Z,14.13
2018-11-05T01:10:59.813Z,14.50
2018-11-05T01:13:30.478Z,14.10
2018-11-05T01:16:01.339Z,13.60
2018-11-05T01:18:31.638Z,13.23
2018-11-05T01:21:02.229Z,13.27
2018-11-05T01:23:32.902Z,14.40
2018-11-05T01:26:03.806Z,13.13
2018-11-05T01:28:34.738Z,12.83
2018-11-05T01:31:05.425Z,13.67
2018-11-05T01:33:36.071Z,13.50
2018-11-05T01:36:06.827Z,13.60
2018-11-05T01:38:37.805Z,13.93
2018-11-05T01:41:08.502Z,13.83
2018-11-05T01:43:39.285Z,12.67
2018-11-05T01:46:10.153Z,16.33
2018-11-05T01:48:41.009Z,16.20
2018-11-05T01:51:10.979Z,17.07
2018-11-05T01:53:41.800Z,14.90
2018-11-05T01:56:12.532Z,14.20
2018-11-05T01:58:43.157Z,14.87
2018-11-05T02:01:13.814Z,13.43
2018-11-05T02:03:43.773Z,12.73
2018-11-05T02:06:14.032Z,12.70
2018-11-05T02:08:44.624Z,12.40
2018-11-05T02:11:15.360Z,11.93
2018-11-05T02:13:45.294Z,12.37
2018-11-05T02:16:15.570Z,12.17
2018-11-05T02:18:46.353Z,12.23
2018-11-05T02:21:17.203Z,12.77
2018-11-05T02:23:47.430Z,11.47
2018-11-05T02:26:18.435Z,11.57
2018-11-05T02:28:49.244Z,11.17
2018-11-05T02:31:19.872Z,11.33
2018-11-05T02:33:51.548Z,10.27
2018-11-05T02:36:22.291Z,10.57
2018-11-05T02:38:53.133Z,9.93
2018-11-05T02:41:24.118Z,10.37
2018-11-05T02:43:54.977Z,9.70
2018-11-05T02:46:25.479Z,9.67
2018-11-05T02:48:56.456Z,9.17
2018-11-05T02:51:26.912Z,10.20
2018-11-05T02:53:57.780Z,9.87
2018-11-05T02:56:28.265Z,9.47
2018-11-05T02:58:59.328Z,10.27
2018-11-05T03:01:30.118Z,9.83
2018-11-05T03:04:00.367Z,10.10
2018-11-05T03:06:30.609Z,9.73
2018-11-05T03:09:01.260Z,9.03
2018-11-05T03:11:32.153Z,9.30
2018-11-05T03:14:03.181Z,9.47
2018-11-05T03:16:34.511Z,10.27
2018-11-05T03:19:05.286Z,8.93
2018-11-05T03:21:36.000Z,8.70
2018-11-05T03:24:06.387Z,9.20
2018-11-05T03:26:36.944Z,9.57
2018-11-05T03:29:08.172Z,8.87
2018-11-05T03:31:39.324Z,9.07
2018-11-05T03:34:10.089Z,8.70
2018-11-05T03:36:40.843Z,9.37
2018-11-05T03:39:12.716Z,8.83
2018-11-05T03:41:43.465Z,8.93
2018-11-05T03:44:15.092Z,8.47
2018-11-05T03:46:45.682Z,8.60
2018-11-05T03:49:16.357Z,8.47
2018-11-05T03:51:46.679Z,9.03
2018-11-05T03:54:18.297Z,8.57
2018-11-05T03:56:49.208Z,7.83
2018-11-05T03:59:19.872Z,8.30
2018-11-05T04:01:50.598Z,8.70
2018-11-05T04:04:21.408Z,9.50
2018-11-05T04:06:51.961Z,10.20
2018-11-05T04:09:22.807Z,9.47
2018-11-05T04:11:53.545Z,9.93
2018-11-05T04:14:24.593Z,10.40
2018-11-05T04:16:55.230Z,10.10
2018-11-05T04:19:25.822Z,10.40
2018-11-05T04:21:56.513Z,9.90
2018-11-05T04:24:27.270Z,10.13
2018-11-05T04:26:58.025Z,10.40
2018-11-05T04:29:28.457Z,10.20
2018-11-05T04:31:59.198Z,9.90
2018-11-05T04:34:30.238Z,10.77
2018-11-05T04:37:01.145Z,11.27
2018-11-05T04:39:31.870Z,12.43
2018-11-05T04:42:02.981Z,17.10
2018-11-05T04:44:33.798Z,16.87
2018-11-05T04:47:04.574Z,22.27
2018-11-05T04:49:35.563Z,25.00
2018-11-05T04:52:06.655Z,26.10
2018-11-05T04:54:37.366Z,26.73
2018-11-05T04:57:08.003Z,27.27
2018-11-05T04:59:39.206Z,27.23
2018-11-05T05:02:09.651Z,26.33
2018-11-05T05:04:40.661Z,27.03
2018-11-05T05:07:11.584Z,27.10
2018-11-05T05:09:42.019Z,26.90
2018-11-05T05:12:12.442Z,29.60
2018-11-05T05:14:43.500Z,27.87
2018-11-05T05:17:14.996Z,29.43
2018-11-05T05:19:46.291Z,27.47
2018-11-05T05:22:16.893Z,25.90
2018-11-05T05:24:47.131Z,26.97
2018-11-05T05:27:17.588Z,26.43
2018-11-05T05:29:48.555Z,25.97
2018-11-05T05:32:21.346Z,27.13
2018-11-05T05:34:52.366Z,27.90
2018-11-05T05:37:23.197Z,29.30
2018-11-05T05:39:53.852Z,28.17
2018-11-05T05:42:24.376Z,28.40
2018-11-05T05:44:55.474Z,35.63
2018-11-05T05:47:25.841Z,40.37
2018-11-05T05:49:56.668Z,39.20
2018-11-05T05:52:27.338Z,41.77
2018-11-05T05:54:57.939Z,39.47
2018-11-05T05:57:28.230Z,42.33
2018-11-05T05:59:58.785Z,39.80
2018-11-05T06:02:29.843Z,40.17
2018-11-05T06:05:00.624Z,38.93
2018-11-05T06:07:31.291Z,39.43
2018-11-05T06:10:02.129Z,38.37
2018-11-05T06:12:32.405Z,37.23
2018-11-05T06:15:03.256Z,36.87
2018-11-05T06:17:34.618Z,37.20
2018-11-05T06:20:06.004Z,36.27
2018-11-05T06:22:36.739Z,37.37
2018-11-05T06:25:08.146Z,32.53
2018-11-05T06:27:39.144Z,32.67
2018-11-05T06:30:12.252Z,31.67
2018-11-05T06:32:44.526Z,29.90
2018-11-05T06:35:15.441Z,24.83
2018-11-05T06:37:46.034Z,25.20
2018-11-05T06:40:18.459Z,26.00
2018-11-05T06:42:49.841Z,27.90
2018-11-05T06:45:21.544Z,25.43
2018-11-05T06:47:52.464Z,25.17
2018-11-05T06:50:25.522Z,26.03
2018-11-05T06:52:56.474Z,28.67
2018-11-05T06:55:27.532Z,31.73
2018-11-05T06:57:58.347Z,33.53
2018-11-05T07:00:29.268Z,31.37
2018-11-05T07:02:59.377Z,33.70
2018-11-05T07:05:29.883Z,34.13
2018-11-05T07:08:00.591Z,32.90
2018-11-05T07:10:31.663Z,29.50
2018-11-05T07:13:03.283Z,27.77
2018-11-05T07:15:33.563Z,33.27
2018-11-05T07:18:03.831Z,33.50
2018-11-05T07:20:34.542Z,27.17
2018-11-05T07:23:05.668Z,30.43
2018-11-05T07:25:36.142Z,27.27
2018-11-05T07:28:07.497Z,24.87
2018-11-05T07:30:39.003Z,26.47
2018-11-05T07:33:09.249Z,24.33
2018-11-05T07:35:41.140Z,27.03
2018-11-05T07:38:11.794Z,26.63
2018-11-05T07:40:42.721Z,26.00
2018-11-05T07:43:13.624Z,24.37
2018-11-05T07:45:44.065Z,26.57
2018-11-05T07:48:15.248Z,24.40
2018-11-05T07:50:46.208Z,24.20
2018-11-05T07:53:16.961Z,25.43
2018-11-05T07:55:47.753Z,25.07
2018-11-05T07:58:18.603Z,24.20
2018-11-05T08:00:54.795Z,24.00
2018-11-05T08:03:25.844Z,25.47
2018-11-05T08:05:57.353Z,25.30
2018-11-05T08:08:29.080Z,25.10
2018-11-05T08:10:59.775Z,23.20
2018-11-05T08:13:31.724Z,24.23
2018-11-05T08:16:02.551Z,24.50
2018-11-05T08:18:33.241Z,23.53
2018-11-05T08:21:04.409Z,23.77
2018-11-05T08:23:35.323Z,23.23
2018-11-05T08:26:06.695Z,23.57
2018-11-05T08:28:38.100Z,23.13
2018-11-05T08:31:09.127Z,20.93
2018-11-05T08:33:39.917Z,21.00
2018-11-05T08:36:10.557Z,21.37
2018-11-05T08:38:41.559Z,20.70
2018-11-05T08:41:12.436Z,20.43
2018-11-05T08:43:43.425Z,20.77
2018-11-05T08:46:14.506Z,20.00
2018-11-05T08:48:44.457Z,16.50
2018-11-05T08:51:15.673Z,17.60
2018-11-05T08:53:46.482Z,17.67
2018-11-05T08:56:16.959Z,16.07
2018-11-05T08:58:48.101Z,15.63
2018-11-05T09:02:48.125Z,14.77
2018-11-05T09:05:19.127Z,12.67
2018-11-05T09:07:50.763Z,7.43
2018-11-05T09:10:21.525Z,10.60
2018-11-05T09:12:52.160Z,12.60
2018-11-05T09:15:23.436Z,13.00
2018-11-05T09:17:54.581Z,13.13
2018-11-05T09:20:25.323Z,11.83
2018-11-05T09:22:56.772Z,13.50
2018-11-05T09:25:27.407Z,8.47
2018-11-05T09:27:58.265Z,9.03
2018-11-05T09:30:28.664Z,9.93
2018-11-05T09:32:59.612Z,10.37
2018-11-05T09:35:30.369Z,7.83
2018-11-05T09:38:01.242Z,7.40
2018-11-05T09:40:33.424Z,7.27
2018-11-05T09:43:05.048Z,6.57
2018-11-05T09:45:35.795Z,6.77
2018-11-05T09:48:06.123Z,8.47
2018-11-05T09:50:37.547Z,7.43
2018-11-05T09:53:08.322Z,7.67
2018-11-05T09:55:39.415Z,8.30
2018-11-05T09:58:09.956Z,8.40
2018-11-05T10:00:41.522Z,7.77
2018-11-05T10:03:15.547Z,8.47
2018-11-05T10:05:46.902Z,10.20
2018-11-05T10:08:18.577Z,10.27
2018-11-05T10:10:48.786Z,11.13
2018-11-05T10:13:20.075Z,10.17
2018-11-05T10:15:51.020Z,10.47
2018-11-05T10:18:22.309Z,11.87
2018-11-05T10:20:53.460Z,9.60
2018-11-05T10:23:25.128Z,11.03
2018-11-05T10:25:56.269Z,9.73
2018-11-05T10:28:27.452Z,9.23
2018-11-05T10:30:58.310Z,9.07
2018-11-05T10:33:28.926Z,9.07
2018-11-05T10:36:00.150Z,8.90
2018-11-05T10:38:31.001Z,8.73
2018-11-05T10:41:01.745Z,8.93
2018-11-05T10:43:32.381Z,8.67
2018-11-05T10:46:03.606Z,9.53
2018-11-05T10:48:34.058Z,10.00
2018-11-05T10:51:04.280Z,9.67
2018-11-05T10:53:34.870Z,10.07
2018-11-05T10:56:05.783Z,10.47
2018-11-05T10:58:36.534Z,12.10
2018-11-05T11:01:14.347Z,12.57
2018-11-05T11:03:50.114Z,11.70
2018-11-05T11:06:21.557Z,13.53
2018-11-05T11:08:52.631Z,13.87
2018-11-05T11:11:23.032Z,13.23
2018-11-05T11:13:53.730Z,14.83
2018-11-05T11:16:24.719Z,13.20
2018-11-05T11:18:55.690Z,12.77
2018-11-05T11:21:25.655Z,13.17
2018-11-05T11:23:56.412Z,13.60
2018-11-05T11:26:27.344Z,13.03
2018-11-05T11:28:58.143Z,12.13
2018-11-05T11:31:28.486Z,12.63
2018-11-05T11:33:58.400Z,12.33
2018-11-05T11:36:28.641Z,11.60
2018-11-05T11:38:59.951Z,11.10
2018-11-05T11:41:30.480Z,12.97
2018-11-05T11:44:01.225Z,11.67
2018-11-05T11:46:32.257Z,10.77
2018-11-05T11:49:03.189Z,9.90
2018-11-05T11:51:33.826Z,9.60
2018-11-05T11:54:04.416Z,9.63
2018-11-05T11:56:34.740Z,10.43
2018-11-05T11:59:05.603Z,8.30
2018-11-05T12:01:41.527Z,8.93
2018-11-05T12:04:12.176Z,8.53
2018-11-05T12:06:43.160Z,9.20
2018-11-05T12:09:13.962Z,9.00
2018-11-05T12:11:45.007Z,8.07
2018-11-05T12:14:15.805Z,7.63
2018-11-05T12:16:46.790Z,7.10
2018-11-05T12:19:17.492Z,7.13
2018-11-05T12:21:47.848Z,7.10
2018-11-05T12:24:18.410Z,7.30
2018-11-05T12:26:49.001Z,6.77
2018-11-05T12:29:20.029Z,7.47
2018-11-05T12:31:50.788Z,7.67
2018-11-05T12:34:21.600Z,8.07
2018-11-05T12:36:52.391Z,8.97
2018-11-05T12:39:22.954Z,7.83
2018-11-05T12:41:53.678Z,7.93
2018-11-05T12:44:24.501Z,7.80
2018-11-05T12:46:55.296Z,8.20
2018-11-05T12:49:25.276Z,7.60
2018-11-05T12:51:56.694Z,10.33
2018-11-05T12:54:26.850Z,8.20
2018-11-05T12:56:57.368Z,9.63
2018-11-05T12:59:27.912Z,9.40
2018-11-05T13:01:58.117Z,11.27
2018-11-05T13:04:29.493Z,9.80
2018-11-05T13:07:00.834Z,9.00
2018-11-05T13:09:31.139Z,8.77
2018-11-05T13:12:03.106Z,10.03
2018-11-05T13:14:34.217Z,9.90
2018-11-05T13:17:06.199Z,10.10
2018-11-05T13:19:37.050Z,10.77
2018-11-05T13:22:08.280Z,9.30
2018-11-05T13:24:39.766Z,9.33
2018-11-05T13:27:10.138Z,8.10
2018-11-05T13:29:40.904Z,8.33
2018-11-05T13:32:14.509Z,8.20
2018-11-05T13:34:45.341Z,9.00
2018-11-05T13:37:17.068Z,9.10
2018-11-05T13:39:47.492Z,8.17
2018-11-05T13:42:18.140Z,8.20
2018-11-05T13:44:49.213Z,8.20
2018-11-05T13:47:21.121Z,8.10
2018-11-05T13:49:53.065Z,7.87
2018-11-05T13:52:23.119Z,8.13
2018-11-05T13:54:54.540Z,9.00
2018-11-05T13:57:25.159Z,13.67
2018-11-05T13:59:56.331Z,10.20
2018-11-05T14:02:27.612Z,8.80
2018-11-05T14:04:58.960Z,8.77
2018-11-05T14:07:30.459Z,8.70
2018-11-05T14:10:01.686Z,9.93
2018-11-05T14:12:32.921Z,10.93
2018-11-05T14:15:05.058Z,8.40
2018-11-05T14:17:36.344Z,9.10
2018-11-05T14:20:09.945Z,8.57
2018-11-05T14:22:40.567Z,8.23
2018-11-05T14:25:16.427Z,8.53
2018-11-05T14:27:48.479Z,7.90
2018-11-05T14:30:19.546Z,7.40
2018-11-05T14:32:50.842Z,7.70
2018-11-05T14:35:22.168Z,7.40
2018-11-05T14:37:53.195Z,8.30
2018-11-05T14:40:25.292Z,8.80
2018-11-05T14:42:56.066Z,8.77
2018-11-05T14:45:27.485Z,7.60
2018-11-05T14:47:58.152Z,7.60
2018-11-05T14:50:29.380Z,10.70
2018-11-05T14:53:00.605Z,8.50
2018-11-05T14:55:31.850Z,7.93
2018-11-05T14:58:03.567Z,7.60
2018-11-05T15:00:34.406Z,7.87
2018-11-05T15:03:05.781Z,7.13
2018-11-05T15:05:37.223Z,7.57
2018-11-05T15:08:08.750Z,7.83
2018-11-05T15:10:40.076Z,7.93
2018-11-05T15:13:11.092Z,8.30
2018-11-05T15:15:43.301Z,30.97
2018-11-05T15:18:13.696Z,15.53
2018-11-05T15:20:43.948Z,10.70
2018-11-05T15:23:14.640Z,9.60
2018-11-05T15:25:45.945Z,8.60
2018-11-05T15:28:16.416Z,9.10
2018-11-05T15:30:46.338Z,10.63
2018-11-05T15:33:17.844Z,10.23
2018-11-05T15:35:48.123Z,9.20
2018-11-05T15:38:18.497Z,10.27
2018-11-05T15:40:49.200Z,10.03
2018-11-05T15:43:19.952Z,10.10
2018-11-05T15:45:50.754Z,10.13
2018-11-05T15:48:21.283Z,11.10
2018-11-05T15:50:51.934Z,11.83
2018-11-05T15:53:23.620Z,12.37
2018-11-05T15:55:54.061Z,11.60
2018-11-05T15:58:24.965Z,10.67
2018-11-05T16:00:56.601Z,11.90
2018-11-05T16:03:27.636Z,13.77
2018-11-05T16:05:58.225Z,14.90
2018-11-05T16:08:29.320Z,15.13
2018-11-05T16:11:00.080Z,13.57
2018-11-05T16:13:30.679Z,14.17
2018-11-05T16:16:01.090Z,12.63
2018-11-05T16:18:31.485Z,16.40
2018-11-05T16:21:02.199Z,18.50
2018-11-05T16:23:33.148Z,13.13
2018-11-05T16:26:03.681Z,15.07
2018-11-05T16:28:34.683Z,19.00
2018-11-05T16:31:05.174Z,21.43
2018-11-05T16:33:35.300Z,21.67
2018-11-05T16:36:06.371Z,22.27
2018-11-05T16:38:37.632Z,24.83
2018-11-05T16:41:08.844Z,25.67
2018-11-05T16:43:39.845Z,25.33
2018-11-05T16:46:10.655Z,26.17
2018-11-05T16:48:41.151Z,26.87
2018-11-05T16:51:12.025Z,21.43
2018-11-05T16:53:42.686Z,20.00
2018-11-05T16:56:13.417Z,18.47
2018-11-05T16:58:44.451Z,23.07
2018-11-05T17:01:14.863Z,18.83
2018-11-05T17:03:45.492Z,18.63
2018-11-05T17:06:16.379Z,21.20
2018-11-05T17:08:47.722Z,22.07
2018-11-05T17:11:18.878Z,21.63
2018-11-05T17:13:50.801Z,19.67
2018-11-05T17:16:21.946Z,19.57
2018-11-05T17:18:53.034Z,17.53
2018-11-05T17:21:23.709Z,15.77
2018-11-05T17:23:54.461Z,17.43
2018-11-05T17:26:25.481Z,16.13
2018-11-05T17:28:55.962Z,16.77
2018-11-05T17:31:26.247Z,16.87
2018-11-05T17:33:56.941Z,17.73
2018-11-05T17:36:28.026Z,20.27
2018-11-05T17:38:59.170Z,21.27
2018-11-05T17:41:29.778Z,19.53
2018-11-05T17:44:00.023Z,18.97
2018-11-05T17:46:30.694Z,19.37
2018-11-05T17:49:01.397Z,21.23
2018-11-05T17:51:31.889Z,22.20
2018-11-05T17:54:02.642Z,25.07
2018-11-05T17:56:33.352Z,24.73
2018-11-05T17:59:04.916Z,28.60
2018-11-05T18:01:36.196Z,28.43
2018-11-05T18:04:07.277Z,31.87
2018-11-05T18:06:38.130Z,34.87
2018-11-05T18:09:09.765Z,31.57
2018-11-05T18:11:39.949Z,29.80
2018-11-05T18:14:10.630Z,30.53
2018-11-05T18:16:41.123Z,27.53
2018-11-05T18:19:11.775Z,24.50
2018-11-05T18:21:42.477Z,25.20
2018-11-05T18:24:13.560Z,23.67
2018-11-05T18:26:43.976Z,22.63
2018-11-05T18:29:14.555Z,24.73
2018-11-05T18:31:45.257Z,25.20
2018-11-05T18:34:15.799Z,25.03
2018-11-05T18:36:46.047Z,24.00
2018-11-05T18:39:17.259Z,22.30
2018-11-05T18:41:48.060Z,23.67
2018-11-05T18:44:18.678Z,23.33
2018-11-05T18:46:49.172Z,24.83
2018-11-05T18:49:20.067Z,24.63
2018-11-05T18:51:51.207Z,23.70
2018-11-05T18:54:22.465Z,24.53
2018-11-05T18:56:53.484Z,24.67
2018-11-05T18:59:24.381Z,25.07
2018-11-05T19:01:54.915Z,24.10
2018-11-05T19:04:25.401Z,25.80
2018-11-05T19:06:56.054Z,41.33
2018-11-05T19:09:26.664Z,36.60
2018-11-05T19:11:56.802Z,33.63
2018-11-05T19:14:28.430Z,36.70
2018-11-05T19:16:59.027Z,45.70
2018-11-05T19:19:29.759Z,50.03
2018-11-05T19:21:59.850Z,57.07
2018-11-05T19:24:30.161Z,58.43
2018-11-05T19:27:00.775Z,63.40
2018-11-05T19:29:31.981Z,62.33
2018-11-05T19:32:02.307Z,60.83
2018-11-05T19:34:33.680Z,61.53
2018-11-05T19:37:05.446Z,60.47
2018-11-05T19:39:36.075Z,60.47
2018-11-05T19:42:07.351Z,62.77
2018-11-05T19:44:38.592Z,59.17
2018-11-05T19:47:09.664Z,81.43
2018-11-05T19:49:40.256Z,83.73
2018-11-05T19:52:10.523Z,93.67
2018-11-05T19:54:41.608Z,103.03
2018-11-05T19:57:12.213Z,102.20
2018-11-05T19:59:43.569Z,109.83
2018-11-05T20:02:14.375Z,110.83
2018-11-05T20:04:45.284Z,108.10
2018-11-05T20:07:15.684Z,100.57
2018-11-05T20:09:46.048Z,94.10
2018-11-05T20:12:17.698Z,103.03
2018-11-05T20:14:48.323Z,81.30
2018-11-05T20:17:19.572Z,70.30
2018-11-05T20:19:51.185Z,59.33
2018-11-05T20:22:23.107Z,56.43
2018-11-05T20:24:54.065Z,53.07
2018-11-05T20:27:25.202Z,49.23
2018-11-05T20:29:55.947Z,48.50
2018-11-05T20:32:27.515Z,47.87
2018-11-05T20:34:58.137Z,51.00
2018-11-05T20:37:28.857Z,46.67
2018-11-05T20:40:00.183Z,46.50
2018-11-05T20:42:31.956Z,46.90
2018-11-05T20:45:02.969Z,43.77
2018-11-05T20:47:34.174Z,46.20
2018-11-05T20:50:04.759Z,41.53
2018-11-05T20:52:35.589Z,40.20
2018-11-05T20:55:06.985Z,38.97
2018-11-05T20:57:37.635Z,41.00
2018-11-05T21:00:10.013Z,40.47
2018-11-05T21:02:41.092Z,39.27
2018-11-05T21:05:11.984Z,39.27
2018-11-05T21:07:43.483Z,38.27
2018-11-05T21:10:15.132Z,38.90
2018-11-05T21:12:45.957Z,39.60
2018-11-05T21:15:19.045Z,38.27
2018-11-05T21:17:50.552Z,36.97
2018-11-05T21:20:21.157Z,37.60
2018-11-05T21:22:52.094Z,36.97
2018-11-05T21:25:22.927Z,37.50
2018-11-05T21:27:53.391Z,37.17
2018-11-05T21:30:24.297Z,37.00
2018-11-05T21:32:55.034Z,38.13
2018-11-05T21:35:26.053Z,36.20
2018-11-05T21:37:56.507Z,37.03
2018-11-05T21:40:26.909Z,35.10
2018-11-05T21:42:56.945Z,36.10
2018-11-05T21:45:28.411Z,36.00
2018-11-05T21:48:00.295Z,37.00
2018-11-05T21:50:30.976Z,35.90
2018-11-05T21:53:02.357Z,38.40
2018-11-05T21:55:33.245Z,37.57
2018-11-05T21:58:04.733Z,36.63
2018-11-05T22:00:35.266Z,36.43
2018-11-05T22:03:10.331Z,35.80
2018-11-05T22:05:40.934Z,35.47
2018-11-05T22:08:11.855Z,36.93
2018-11-05T22:10:42.639Z,41.10
2018-11-05T22:13:13.247Z,42.67
2018-11-05T22:15:48.683Z,43.10
2018-11-05T22:18:19.546Z,37.50
2018-11-05T22:20:50.244Z,36.57
2018-11-05T22:23:20.946Z,35.87
2018-11-05T22:25:51.668Z,36.77
2018-11-05T22:28:22.553Z,35.87
2018-11-05T22:30:53.981Z,35.13
2018-11-05T22:33:24.805Z,32.30
2018-11-05T22:35:55.553Z,34.00
2018-11-05T22:38:27.187Z,35.00
2018-11-05T22:40:58.246Z,38.27
2018-11-05T22:43:29.034Z,36.67
2018-11-05T22:45:59.964Z,36.63
2018-11-05T22:48:30.487Z,33.50
2018-11-05T22:51:01.159Z,37.47
2018-11-05T22:53:31.681Z,39.33
2018-11-05T22:56:02.145Z,40.53
2018-11-05T22:58:32.800Z,47.70
2018-11-05T23:01:07.261Z,70.40
2018-11-05T23:03:37.338Z,56.83
2018-11-05T23:06:08.305Z,52.43
2018-11-05T23:08:39.285Z,47.53
2018-11-05T23:11:10.006Z,45.93
2018-11-05T23:13:40.867Z,49.27
2018-11-05T23:16:12.186Z,52.23
2018-11-05T23:18:43.508Z,55.90
2018-11-05T23:21:14.419Z,58.93
2018-11-05T23:23:45.099Z,61.10
2018-11-05T23:26:15.972Z,53.87
2018-11-05T23:28:46.875Z,50.20
2018-11-05T23:31:17.417Z,51.50
2018-11-05T23:33:48.089Z,47.70
2018-11-05T23:36:18.700Z,44.00
2018-11-05T23:38:49.593Z,42.73
2018-11-05T23:41:20.235Z,44.77
2018-11-05T23:43:51.000Z,39.13
2018-11-05T23:46:21.545Z,38.83
2018-11-05T23:48:51.582Z,41.13
2018-11-05T23:51:22.199Z,43.47
2018-11-05T23:53:52.532Z,42.80
2018-11-05T23:56:23.015Z,36.77
2018-11-05T23:58:53.532Z,35.20
